Bullville, New York
Current Conditions -  °F | °C
As of 8:54 PM on Saturday 22 Nov 2014 (Local Time) from KMGJ Reporting Station
Scattered Clouds Scattered Clouds  
Wind Chill: 33°   Ceiling: Unl
Heat Index: 39°   Visibility: 10mi
Dew Point: 16°   Wind: 9mph
Humidity: 39%   Direction: 200°SSW
Pressure: 30.16"   Gusts: NA
Location:  41.54°N, 74.36°W
Report Text: KMGJ 230154Z AUTO 20008KT 10SM SCT060 04/M09 A3016 RMK AO2 SLP215 T00391089 TSNO
Loading
Personal Weather Stations






























Interactive Weather Map New forecast layout! Learn more

10-Day Weather Forecast

Advertisements
Track Severe Weather on mobile